Flight Track Log - Related Links

Times and Time Zones

All times are in EDT time to prevent confusion due to time zone crossing. See the UPS2774 flight status page for this flight to view local times or setup timezone preferences in your user account.

Time Position Orientation Groundspeed Altitude Reporting Facility
EDT Latitude Longitude Course Direction KTS MPH feet Rate Location/Type
Mon 05:03:07 PM 38.1820 -85.7470 165° South 163 188 800  Level FlightAware ADS-B
Mon 05:03:21 PM 38.1930 -85.7510 344° North 164 189 1,700 3,000 Climbing FlightAware ADS-B
Mon 05:03:43 PM 38.2090 -85.7590 339° North 175 201 2,600 2,455 Climbing FlightAware ADS-B
Mon 05:04:05 PM 38.2250 -85.7700 332° Northwest 189 217 3,500 1,941 Climbing FlightAware ADS-B
Mon 05:04:17 PM 38.2350 -85.7780 328° Northwest 218 251 3,700 1,333 Climbing FlightAware ADS-B
Mon 05:04:41 PM 38.2570 -85.7940 330° Northwest 262 302 4,300 2,167 Climbing FlightAware ADS-B
Mon 05:04:53 PM 38.2690 -85.8070 320° Northwest 274 315 5,000 3,900 Climbing FlightAware ADS-B
Mon 05:05:01 PM 38.2740 -85.8180 300° West 272 313 5,600 5,143 Climbing FlightAware ADS-B
Mon 05:05:07 PM 38.2770 -85.8270 293° West 269 310 6,200 5,000 Climbing FlightAware ADS-B
Mon 05:05:13 PM 38.2780 -85.8370 277° West 270 311 6,600 4,200 Climbing FlightAware ADS-B
Mon 05:05:37 PM 38.2740 -85.8760 263° West 280 322 8,300 4,000 Climbing FlightAware ADS-B
Mon 05:05:49 PM 38.2670 -85.8930 242° Southwest 285 328 9,000 3,300 Climbing FlightAware ADS-B
Mon 05:05:57 PM 38.2600 -85.9030 228° Southwest 287 330 9,400 3,000 Climbing FlightAware ADS-B
Mon 05:06:07 PM 38.2510 -85.9130 221° Southwest 291 335 9,900 2,375 Climbing FlightAware ADS-B
Mon 05:06:45 PM 38.2040 -85.9560 216° Southwest 348 400 11,300 2,108 Climbing FlightAware ADS-B
Mon 05:07:21 PM 38.1540 -86.0020 216° Southwest 397 457 12,500 2,657 Climbing FlightAware ADS-B
Mon 05:07:55 PM 38.1010 -86.0510 216° Southwest 413 475 14,400 3,429 Climbing FlightAware ADS-B
Mon 05:08:31 PM 38.0460 -86.1020 216° Southwest 423 487 16,500 3,313 Climbing FlightAware ADS-B
Mon 05:09:02 PM 37.9970 -86.1490 217° Southwest 435 501 18,100 2,954 Climbing FlightAware ADS-B
Mon 05:09:36 PM 37.9420 -86.2010 217° Southwest 449 517 19,700 2,947 Climbing FlightAware ADS-B
Mon 05:09:59 PM 37.8990 -86.2330 210° Southwest 457 526 20,900 2,941 Climbing FlightAware ADS-B
Mon 05:10:27 PM 37.8430 -86.2570 199° South 465 535 22,200 2,530 Climbing FlightAware ADS-B
Mon 05:11:22 PM 37.7250 -86.2880 192° South 486 559 24,400 2,455 Climbing FlightAware ADS-B
Mon 05:11:55 PM 37.6500 -86.3070 191° South 492 566 25,800 2,609 Climbing FlightAware ADS-B
Mon 05:12:31 PM 37.5690 -86.3280 192° South 494 568 27,400 2,333 Climbing FlightAware ADS-B
Mon 05:13:07 PM 37.4880 -86.3490 192° South 502 578 28,600 2,344 Climbing FlightAware ADS-B
Mon 05:13:35 PM 37.4230 -86.3650 191° South 498 573 29,900 2,273 Climbing FlightAware ADS-B
Mon 05:14:13 PM 37.3400 -86.3860 191° South 504 580 31,100 2,027 Climbing FlightAware ADS-B
Mon 05:14:49 PM 37.2570 -86.4120 194° South 496 571 32,400 1,938 Climbing FlightAware ADS-B
Mon 05:15:18 PM 37.2020 -86.4530 211° Southwest 482 555 33,200 1,477 Climbing FlightAware ADS-B
Mon 05:15:54 PM 37.1420 -86.5180 221° Southwest 476 548 34,000 845 Climbing FlightAware ADS-B
Mon 05:16:29 PM 37.0830 -86.5810 220° Southwest 471 542 34,200 1,043 Climbing FlightAware ADS-B
Mon 05:17:03 PM 37.0270 -86.6430 221° Southwest 468 539 35,200 1,909 Climbing FlightAware ADS-B
Mon 05:17:35 PM 36.9760 -86.6980 221° Southwest 458 527 36,300 1,588 Climbing FlightAware ADS-B
Mon 05:18:11 PM 36.9180 -86.7600 221° Southwest 460 529 37,000 583 Climbing FlightAware ADS-B
Mon 05:18:47 PM 36.8600 -86.8230 221° Southwest 460 529 37,000  Level FlightAware ADS-B
Mon 05:19:23 PM 36.8020 -86.8850 221° Southwest 459 528 37,000  Level FlightAware ADS-B
Mon 05:19:59 PM 36.7440 -86.9470 221° Southwest 460 529 37,000  Level FlightAware ADS-B
Mon 05:20:33 PM 36.6880 -87.0080 221° Southwest 462 532 37,000  Level FlightAware ADS-B
Mon 05:21:09 PM 36.6310 -87.0690 221° Southwest 461 531 37,000  Level FlightAware ADS-B
Mon 05:21:41 PM 36.5790 -87.1250 221° Southwest 460 529 37,000 85 Level FlightAware ADS-B
Mon 05:22:20 PM 36.5160 -87.1910 220° Southwest 461 531 37,100 514 Climbing FlightAware ADS-B
Mon 05:22:51 PM 36.4650 -87.2460 221° Southwest 463 533 37,600 806 Climbing FlightAware ADS-B
Mon 05:23:27 PM 36.4070 -87.3070 220° Southwest 464 534 38,000 333 Climbing FlightAware ADS-B
Mon 05:24:03 PM 36.3480 -87.3700 221° Southwest 468 539 38,000  Level FlightAware ADS-B
Mon 05:24:37 PM 36.2920 -87.4290 220° Southwest 470 541 38,000  Level FlightAware ADS-B
Mon 05:25:15 PM 36.2280 -87.4970 221° Southwest 473 544 38,000  Level FlightAware ADS-B
Mon 05:25:48 PM 36.1740 -87.5530 220° Southwest 473 544 38,000  Level FlightAware ADS-B
Mon 05:26:25 PM 36.1120 -87.6180 220° Southwest 475 547 38,000  Level FlightAware ADS-B
Mon 05:26:57 PM 36.0570 -87.6750 220° Southwest 476 548 38,000  Level FlightAware ADS-B
Mon 05:27:33 PM 35.9970 -87.7380 220° Southwest 477 549 38,000  Level FlightAware ADS-B
Mon 05:28:09 PM 35.9380 -87.8000 220° Southwest 477 549 38,000  Level FlightAware ADS-B
Mon 05:28:41 PM 35.8830 -87.8580 221° Southwest 476 548 38,000  Level FlightAware ADS-B
Mon 05:29:19 PM 35.8210 -87.9230 220° Southwest 476 548 38,000  Level FlightAware ADS-B
Mon 05:29:51 PM 35.7660 -87.9790 220° Southwest 476 548 38,000  Level FlightAware ADS-B
Mon 05:30:27 PM 35.7050 -88.0420 220° Southwest 476 548 38,000  Level FlightAware ADS-B
Mon 05:31:04 PM 35.6430 -88.1060 220° Southwest 475 547 38,000  Level FlightAware ADS-B
Mon 05:31:40 PM 35.5850 -88.1660 220° Southwest 474 545 38,000  Level FlightAware ADS-B
Mon 05:32:11 PM 35.5310 -88.2220 220° Southwest 474 545 38,000  Level FlightAware ADS-B
Mon 05:32:48 PM 35.4690 -88.2850 220° Southwest 473 544 38,000  Level FlightAware ADS-B
Mon 05:33:20 PM 35.4130 -88.3420 220° Southwest 472 543 38,000  Level FlightAware ADS-B
Mon 05:33:57 PM 35.3520 -88.4050 220° Southwest 471 542 38,000  Level FlightAware ADS-B
Mon 05:34:34 PM 35.2910 -88.4680 220° Southwest 470 541 38,000 87 Level FlightAware ADS-B
Mon 05:35:06 PM 35.2370 -88.5220 219° Southwest 470 541 38,100 90 Climbing FlightAware ADS-B
Mon 05:35:41 PM 35.1780 -88.5830 220° Southwest 469 540 38,100 -83 Level FlightAware ADS-B
Mon 05:36:18 PM 35.1170 -88.6450 220° Southwest 467 537 38,000 -82 Descending FlightAware ADS-B
Mon 05:36:54 PM 35.0570 -88.7050 219° Southwest 467 537 38,000  Level FlightAware ADS-B
Mon 05:37:30 PM 34.9970 -88.7660 220° Southwest 466 536 38,000  Level FlightAware ADS-B
Mon 05:38:01 PM 34.9450 -88.8190 220° Southwest 465 535 38,000  Level FlightAware ADS-B
Mon 05:38:39 PM 34.8820 -88.8820 219° Southwest 465 535 38,000  Level FlightAware ADS-B
Mon 05:39:11 PM 34.8280 -88.9360 219° Southwest 467 537 38,000  Level FlightAware ADS-B
Mon 05:39:46 PM 34.7720 -88.9930 220° Southwest 467 537 38,000 83 Level FlightAware ADS-B
Mon 05:40:23 PM 34.7100 -89.0550 219° Southwest 466 536 38,100 85 Climbing FlightAware ADS-B
Mon 05:40:57 PM 34.6530 -89.1120 219° Southwest 465 535 38,100 -87 Level FlightAware ADS-B
Mon 05:41:32 PM 34.5950 -89.1700 219° Southwest 464 534 38,000 -85 Descending FlightAware ADS-B
Mon 05:42:08 PM 34.5340 -89.2300 219° Southwest 462 532 38,000  Level FlightAware ADS-B
Mon 05:42:41 PM 34.4810 -89.2840 220° Southwest 462 532 38,000  Level FlightAware ADS-B
Mon 05:43:18 PM 34.4200 -89.3450 220° Southwest 461 531 38,000  Level FlightAware ADS-B
Mon 05:43:51 PM 34.3650 -89.3990 219° Southwest 461 531 38,000  Level FlightAware ADS-B
Mon 05:44:30 PM 34.3010 -89.4620 219° Southwest 462 532 38,000  Level FlightAware ADS-B
Mon 05:45:03 PM 34.2470 -89.5150 219° Southwest 466 536 38,000  Level FlightAware ADS-B
Mon 05:45:39 PM 34.1850 -89.5760 219° Southwest 469 540 38,000 83 Level FlightAware ADS-B
Mon 05:46:15 PM 34.1240 -89.6350 219° Southwest 471 542 38,100 92 Climbing FlightAware ADS-B
Mon 05:46:44 PM 34.0780 -89.6800 219° Southwest 472 543 38,100  Level FlightAware ADS-B
Mon 05:47:23 PM 34.0100 -89.7470 219° Southwest 476 548 38,100  Level FlightAware ADS-B
Mon 05:47:56 PM 33.9520 -89.8030 219° Southwest 476 548 38,100 -87 Level FlightAware ADS-B
Mon 05:48:32 PM 33.8910 -89.8640 220° Southwest 475 547 38,000 -85 Descending FlightAware ADS-B
Mon 05:49:07 PM 33.8330 -89.9200 219° Southwest 472 543 38,000  Level FlightAware ADS-B
Mon 05:49:42 PM 33.7750 -89.9760 219° Southwest 469 540 38,000  Level FlightAware ADS-B
Mon 05:50:14 PM 33.7200 -90.0300 219° Southwest 467 537 38,000  Level FlightAware ADS-B
Mon 05:50:53 PM 33.6550 -90.0930 219° Southwest 464 534 38,000  Level FlightAware ADS-B
Mon 05:51:34 PM 33.5850 -90.1610 219° Southwest 463 533 38,000  Level FlightAware ADS-B
Mon 05:52:16 PM 33.5250 -90.2170 218° Southwest 462 532 38,000  Level FlightAware ADS-B
Mon 05:53:05 PM 33.4430 -90.2980 220° Southwest 460 529 38,000  Level FlightAware ADS-B
Mon 05:53:41 PM 33.3920 -90.3470 219° Southwest 460 529 38,000  Level FlightAware ADS-B
Mon 05:54:16 PM 33.3220 -90.4250 223° Southwest 459 528 38,000  Level FlightAware ADS-B
Mon 05:54:53 PM 33.2720 -90.4770 221° Southwest 459 528 38,000  Level FlightAware ADS-B
Mon 05:55:29 PM 33.2230 -90.5280 221° Southwest 459 528 38,000  Level FlightAware ADS-B
Mon 05:56:06 PM 33.1720 -90.5810 221° Southwest 459 528 38,000  Level FlightAware ADS-B
Mon 05:56:44 PM 33.1210 -90.6340 221° Southwest 459 528 38,000  Level FlightAware ADS-B
Mon 05:57:18 PM 33.0740 -90.6820 221° Southwest 459 528 38,000  Level FlightAware ADS-B
Mon 05:57:51 PM 32.9740 -90.7840 221° Southwest 463 533 38,000  Level FlightAware ADS-B
Mon 05:58:30 PM 32.9200 -90.8380 220° Southwest 463 533 38,000  Level FlightAware ADS-B
Mon 05:59:06 PM 32.8700 -90.8880 220° Southwest 463 533 38,000  Level FlightAware ADS-B
Mon 05:59:42 PM 32.8190 -90.9390 220° Southwest 463 533 38,000  Level FlightAware ADS-B
Mon 06:00:18 PM 32.7690 -90.9890 220° Southwest 463 533 38,000  Level FlightAware ADS-B
Mon 06:00:54 PM 32.7190 -91.0390 220° Southwest 463 533 38,000  Level FlightAware ADS-B
Mon 06:01:30 PM 32.6690 -91.0890 220° Southwest 463 533 38,000  Level FlightAware ADS-B
Mon 06:02:06 PM 32.6190 -91.1390 220° Southwest 463 533 38,000  Level FlightAware ADS-B
Mon 06:02:42 PM 32.5680 -91.1890 220° Southwest 463 533 38,000  Level FlightAware ADS-B
Mon 06:03:19 PM 32.5170 -91.2400 220° Southwest 463 533 38,000  Level FlightAware ADS-B
Mon 06:03:56 PM 32.4650 -91.2920 220° Southwest 463 533 38,000  Level FlightAware ADS-B
Mon 06:04:32 PM 32.4150 -91.3410 220° Southwest 463 533 38,000  Level FlightAware ADS-B
Mon 06:05:08 PM 32.3650 -91.3910 220° Southwest 463 533 38,000  Level FlightAware ADS-B
Mon 06:05:44 PM 32.3150 -91.4410 220° Southwest 463 533 38,000  Level FlightAware ADS-B
Mon 06:06:07 PM 32.1758 -91.5931 220° Southwest 459 528 38,000  Level Houston Center
Mon 06:06:20 PM 32.2640 -91.4910 220° Southwest 463 533 38,000  Level FlightAware ADS-B
Mon 06:06:56 PM 32.2140 -91.5410 220° Southwest 463 533 38,000  Level FlightAware ADS-B
Mon 06:07:08 PM 32.0789 -91.6906 220° Southwest 460 529 38,000  Level Houston Center
Mon 06:07:32 PM 32.1640 -91.5910 220° Southwest 463 533 38,000  Level FlightAware ADS-B
Mon 06:08:10 PM 31.9869 -91.7992 225° Southwest 460 529 38,000  Level Houston Center
Mon 06:09:12 PM 31.9086 -91.9158 232° Southwest 464 534 38,000  Level Houston Center
Mon 06:10:00 PM 31.9425 -91.8136 220° Southwest  Level FlightAware Approximate
Mon 06:10:14 PM 31.8258 -92.0375 231° Southwest 465 535 38,000  Level Houston Center
Mon 06:11:00 PM 31.8526 -91.9035 220° Southwest  Level FlightAware Approximate
Mon 06:11:15 PM 31.7458 -92.1558 232° Southwest 461 531 38,000  Level Houston Center
Mon 06:12:18 PM 31.6503 -92.2961 231° Southwest 457 526 38,000 -48 Level Houston Center
Mon 06:13:19 PM 31.5708 -92.4111 231° Southwest 454 522 37,900 -49 Descending Houston Center
Mon 06:14:21 PM 31.4925 -92.5258 231° Southwest 451 519 37,900  Level Houston Center
Mon 06:15:22 PM 31.4133 -92.6406 231° Southwest 455 524 37,900 49 Level Houston Center
Mon 06:16:24 PM 31.3336 -92.7561 231° Southwest 457 526 38,000 48 Climbing Houston Center
Mon 06:17:26 PM 31.2536 -92.8711 231° Southwest 457 526 38,000 -1,311 Level Houston Center
Mon 06:23:25 PM 30.7970 -93.5235 231° Southwest 396 456 28,800 -1,589 Descending FlightAware ADS-B
Mon 06:24:44 PM 30.7112 -93.6446 231° Southwest 382 440 26,400 -1,859 Descending FlightAware ADS-B
Mon 06:25:47 PM 30.6364 -93.7497 230° Southwest 372 428 24,400 -1,846 Descending FlightAware ADS-B
Mon 06:26:54 PM 30.5679 -93.8456 230° Southwest 356 410 22,400 -1,516 Descending FlightAware ADS-B
Mon 06:27:22 PM 30.5348 -93.8896 229° Southwest 345 397 22,000 -1,615 Descending FlightAware ADS-B
Mon 06:29:04 PM 30.4395 -94.0384 233° Southwest 330 380 18,900 -1,744 Descending FlightAware ADS-B
Mon 06:29:19 PM 30.4313 -94.0636 249° West 321 369 18,600 -1,565 Descending FlightAware ADS-B
Mon 06:29:50 PM 30.4134 -94.1113 246° West 320 368 17,700 -2,035 Descending FlightAware ADS-B
Mon 06:31:14 PM 30.3581 -94.2532 246° West 358 412 14,700 -2,018 Descending FlightAware ADS-B
Mon 06:31:43 PM 30.3381 -94.3042 246° West 357 411 13,900 -1,700 Descending FlightAware ADS-B
Mon 06:32:14 PM 30.3171 -94.3582 246° West 352 405 13,000 -1,723 Descending FlightAware ADS-B
Mon 06:33:24 PM 30.2718 -94.4746 246° West 338 389 11,000 -1,740 Descending FlightAware ADS-B
Mon 06:33:54 PM 30.2523 -94.5247 246° West 335 386 10,100 -1,333 Descending FlightAware ADS-B
Mon 06:34:09 PM 30.2426 -94.5493 245° Southwest 338 389 10,000 -200 Descending FlightAware ADS-B
Mon 06:34:24 PM 30.2328 -94.5748 246° West 336 387 10,000  Level FlightAware ADS-B
Mon 06:35:34 PM 30.1888 -94.6884 246° West 334 384 10,000  Level FlightAware ADS-B
Mon 06:35:50 PM 30.1784 -94.7152 246° West 334 384 10,000  Level FlightAware ADS-B
Mon 06:36:06 PM 30.1686 -94.7402 246° West 334 384 10,000  Level FlightAware ADS-B
Mon 06:36:21 PM 30.1590 -94.7649 246° West 335 386 10,000  Level FlightAware ADS-B
Mon 06:36:37 PM 30.1488 -94.7909 246° West 337 388 10,000  Level FlightAware ADS-B
Mon 06:37:25 PM 30.1190 -94.8680 246° West 337 388 10,000  Level FlightAware ADS-B
Mon 06:37:44 PM 30.1084 -94.9017 250° West 337 388 10,000  Level FlightAware ADS-B
Mon 06:37:47 PM 30.1077 -94.9082 263° West 338 389 10,000 -857 Level FlightAware ADS-B
Mon 06:37:51 PM 30.1075 -94.9143 268° West 338 389 9,900 -857 Descending FlightAware ADS-B
Mon 06:37:54 PM 30.1078 -94.9202 273° West 337 388 9,900 1,000 Level FlightAware ADS-B
Mon 06:37:57 PM 30.1084 -94.9255 277° West 335 386 10,000 600 Climbing FlightAware ADS-B
Mon 06:38:04 PM 30.1103 -94.9376 280° West 327 376 10,000  Level FlightAware ADS-B
Mon 06:38:09 PM 30.1114 -94.9462 278° West 322 371 10,000  Level FlightAware ADS-B
Mon 06:38:13 PM 30.1121 -94.9530 277° West 318 366 10,000  Level FlightAware ADS-B
Mon 06:38:27 PM 30.1135 -94.9754 274° West 302 348 10,000 -214 Level FlightAware ADS-B
Mon 06:38:41 PM 30.1153 -94.9977 275° West 299 344 9,900 -1,138 Descending FlightAware ADS-B
Mon 06:39:25 PM 30.1170 -95.0670 272° West 297 342 8,900 -1,406 Descending FlightAware ADS-B
Mon 06:39:45 PM 30.1170 -95.0990 270° West 293 337 8,400 -1,474 Descending FlightAware ADS-B
Mon 06:40:22 PM 30.1120 -95.1540 264° West 291 335 7,500 -1,500 Descending FlightAware ADS-B
Mon 06:40:33 PM 30.1100 -95.1710 262° West 291 335 7,200 -1,714 Descending FlightAware ADS-B
Mon 06:40:50 PM 30.1070 -95.1990 263° West 291 335 6,700 -1,556 Descending FlightAware ADS-B
Mon 06:41:00 PM 30.1075 -95.2133 272° West 290 334 6,500 -1,440 Descending FlightAware ADS-B
Mon 06:41:15 PM 30.1083 -95.2377 272° West 287 330 6,100 -1,000 Descending FlightAware ADS-B
Mon 06:41:30 PM 30.1080 -95.2606 269° West 285 328 6,000 -240 Descending FlightAware ADS-B
Mon 06:41:40 PM 30.1075 -95.2767 268° West 288 331 6,000  Level FlightAware ADS-B
Mon 06:41:56 PM 30.1071 -95.3005 269° West 277 319 6,000  Level FlightAware ADS-B
Mon 06:42:36 PM 30.1070 -95.3550 270° West 251 289 6,000  Level FlightAware ADS-B
Mon 06:42:55 PM 30.1060 -95.3810 267° West 252 290 6,000  Level FlightAware ADS-B
Mon 06:43:10 PM 30.1063 -95.4005 271° West 249 287 6,000  Level FlightAware ADS-B
Mon 06:43:25 PM 30.1064 -95.4205 270° West 246 283 6,000 -200 Level FlightAware ADS-B
Mon 06:43:40 PM 30.1065 -95.4402 270° West 245 282 5,900 -973 Descending FlightAware ADS-B
Mon 06:44:02 PM 30.1067 -95.4697 270° West 246 283 5,400 -1,333 Descending FlightAware ADS-B
Mon 06:44:34 PM 30.1070 -95.5060 271° West 248 285 4,700 -783 Descending FlightAware ADS-B
Mon 06:45:11 PM 30.1070 -95.5490 270° West 248 285 4,500 -1,304 Descending FlightAware ADS-B
Mon 06:45:20 PM 30.1070 -95.5720 270° West 247 284 3,700 -2,640 Descending FlightAware ADS-B
Mon 06:45:36 PM 30.1070 -95.5936 270° West 244 281 3,400 -1,059 Descending FlightAware ADS-B
Mon 06:45:54 PM 30.1070 -95.6161 270° West 239 275 3,100 -828 Descending FlightAware ADS-B
Mon 06:46:05 PM 30.1070 -95.6307 270° West 237 273 3,000 -231 Descending FlightAware ADS-B
Mon 06:46:20 PM 30.1071 -95.6492 270° West 225 259 3,000  Level FlightAware ADS-B
Mon 06:47:30 PM 30.0608 -95.6859 214° Southwest 193 222 3,000  Level FlightAware ADS-B
Mon 06:47:37 PM 30.0546 -95.6856 178° South 189 217 3,000  Level FlightAware ADS-B
Mon 06:47:40 PM 30.0518 -95.6847 164° South 187 215 3,000  Level FlightAware ADS-B
Mon 06:47:43 PM 30.0495 -95.6833 152° Southeast 185 213 3,000  Level FlightAware ADS-B
Mon 06:47:46 PM 30.0470 -95.6814 147° Southeast 182 209 3,000  Level FlightAware ADS-B
Mon 06:47:50 PM 30.0449 -95.6790 135° Southeast 181 208 3,000  Level FlightAware ADS-B
Mon 06:48:02 PM 30.0381 -95.6699 131° Southeast 181 208 3,000  Level FlightAware ADS-B
Mon 06:48:18 PM 30.0302 -95.6586 129° Southeast 180 207 3,000  Level FlightAware ADS-B
Mon 06:48:26 PM 30.0262 -95.6516 123° Southeast 179 206 3,000  Level FlightAware ADS-B
Mon 06:48:29 PM 30.0253 -95.6489 111° Southeast 178 205 3,000  Level FlightAware ADS-B
Mon 06:48:33 PM 30.0244 -95.6458 109° East 177 204 3,000  Level FlightAware ADS-B
Mon 06:49:12 PM 30.0170 -95.6100 103° East 179 206 3,000  Level FlightAware ADS-B
Mon 06:49:40 PM 30.0121 -95.5848 103° East 169 194 3,000  Level FlightAware ADS-B
Mon 06:49:55 PM 30.0092 -95.5707 103° East 170 196 3,000  Level FlightAware ADS-B
Mon 06:50:01 PM 30.0081 -95.5651 103° East 167 192 3,000  Level FlightAware ADS-B
Mon 06:50:07 PM 30.0075 -95.5605 99° East 167 192 3,000  Level FlightAware ADS-B
Mon 06:50:14 PM 30.0071 -95.5536 94° East 166 191 3,000  Level FlightAware ADS-B
Mon 06:50:30 PM 30.0069 -95.5400 91° East 167 192 3,000 -688 Level FlightAware ADS-B
Mon 06:51:50 PM 30.0071 -95.4696 90° East 164 189 1,900 -884 Descending FlightAware ADS-B
Mon 06:52:05 PM 30.0070 -95.4557 90° East 154 177 1,600 -811 Descending FlightAware ADS-B
Mon 06:52:27 PM 30.0071 -95.4383 90° East 152 175 1,400 -727 Descending FlightAware ADS-B
Mon 06:52:38 PM 30.0071 -95.4291 90° East 150 173 1,200 -667 Descending FlightAware ADS-B
Mon 06:52:54 PM 30.0071 -95.4166 90° East 151 174 1,100 -732 Descending FlightAware ADS-B
Mon 06:54:00 PM 30.0072 -95.3621 90° East 155 178 200 -818 Descending FlightAware ADS-B
Mon 06:54:17 PM 30.0072 -95.3481 90° East 145 167 -706 Descending FlightAware ADS-B

Login

Don't have an account? Register now (free) for customized features, flight alerts, and more!